16:14
Airports
Links
Donate
Help keep this website running!
PayPal
Bitcoin
METAR
KMOT 241554Z 17011KT 10SM BKN080 M11/M16 A2977 RMK AO2 SLP116 T11061161
Current Weather Conditions at KMOT
VFR 15:54:00 24-02-18
Automated station
Altimeter:29.77 hg
Temp:-10.6°c 14°f
Dew point:-16.1°cf
Wind:11 knots, 12.7 mph, 6 m/s, from 170°
Visibility:10.0 statute miles
8000(BKN) Broken
Past METAR reports
VFR 14:54:00 24-02-18
Automated station
Altimeter:29.78 hg
Temp:-11.1°c 12°f
Dew point:-16.7°cf
Wind:16 knots, 18.4 mph, 8 m/s, from 190°
Visibility:10.0 statute miles
10000(OVC) Overcast
KMOT 241454Z 19016KT 10SM OVC100 M11/M17 A2978 RMK AO2 SLP124 T11111167 56014
VFR 13:54:00 24-02-18
Automated station
Altimeter:29.79 hg
Temp:-12.8°c 10°f
Dew point:-17.8°cf
Wind:12 knots, 13.8 mph, 6 m/s, from 190°
Visibility:10.0 statute miles
(CLR) Clear
KMOT 241354Z 19012KT 10SM CLR M13/M18 A2979 RMK AO2 SLP125 T11281178
VFR 12:54:00 24-02-18
Automated station
Altimeter:29.81 hg
Temp:-13.3°cf
Dew point:-18.3°c -0°f
Wind:9 knots, 10.4 mph, 5 m/s, from 190°
Visibility:10.0 statute miles
(CLR) Clear
KMOT 241254Z 19009KT 10SM CLR M13/M18 A2981 RMK AO2 SLP134 T11331183
VFR 11:54:00 24-02-18
Automated station, no observer
Altimeter:29.83 hg
Temp:-12.2°c 10°f
Dew point:-18.3°c -0°f
Wind:10 knots, 11.5 mph, 5 m/s, from 200°
Visibility:10.0 statute miles
(CLR) Clear
KMOT 241154Z AUTO 20010KT 10SM CLR M12/M18 A2983 RMK AO2 SLP136 T11221183 11089 21122 56021
VFR 10:54:00 24-02-18
Automated station, no observer
Altimeter:29.84 hg
Temp:-12.2°c 10°f
Dew point:-17.8°cf
Wind:12 knots, 13.8 mph, 6 m/s, from 180°
Visibility:10.0 statute miles
(CLR) Clear
KMOT 241054Z AUTO 18012KT 10SM CLR M12/M18 A2984 RMK AO2 SLP139 T11221178
TAF
KMOT 241128Z 2412/2512 19012KT P6SM SCT250 FM250500 24010KT P6SM BKN080 FM250800 26012KT P6SM BKN030 FM251100 27012KT P6SM BKN035
Forecast at KMOT
12:00 24-02-18 to 05:00 25-02-18
Wind:12 Knots from 190°
Visibility:6.21 statute miles
25000SCT Scattered
FM 05:00 25-02-18 to 08:00 25-02-18
Wind:10 Knots from 240°
Visibility:6.21 statute miles
8000BKN Broken
FM 08:00 25-02-18 to 11:00 25-02-18
Wind:12 Knots from 260°
Visibility:6.21 statute miles
3000BKN Broken
FM 11:00 25-02-18 to 12:00 25-02-18
Wind:12 Knots from 270°
Visibility:6.21 statute miles
3500BKN Broken